createdAt,value
2019-06-26T07:17:20.665Z,14.67
2019-06-26T07:19:40.866Z,13.73
2019-06-26T07:22:09.559Z,13.63
2019-06-26T07:24:38.542Z,13.97
2019-06-26T07:27:27.748Z,13.60
2019-06-26T07:29:56.558Z,14.00
2019-06-26T07:32:25.291Z,12.63
2019-06-26T07:34:53.956Z,13.10
2019-06-26T07:37:24.097Z,12.30
2019-06-26T07:39:56.810Z,14.53
2019-06-26T07:42:22.894Z,14.17
2019-06-26T07:44:51.417Z,14.50
2019-06-26T07:47:25.049Z,14.23
2019-06-26T07:49:50.117Z,14.20
2019-06-26T07:52:19.900Z,13.83
2019-06-26T07:54:48.441Z,14.67
2019-06-26T07:57:17.064Z,14.37
2019-06-26T07:59:45.561Z,15.33
2019-06-26T08:02:14.232Z,16.10
2019-06-26T08:04:42.899Z,18.07
2019-06-26T08:07:11.933Z,18.07
2019-06-26T08:09:40.625Z,16.43
2019-06-26T08:12:09.222Z,17.83
2019-06-26T08:14:37.902Z,18.67
2019-06-26T08:17:06.576Z,19.30
2019-06-26T08:19:35.141Z,17.33
2019-06-26T08:22:04.002Z,17.37
2019-06-26T08:24:32.481Z,18.17
2019-06-26T08:27:01.015Z,18.13
2019-06-26T08:29:29.583Z,18.63
2019-06-26T08:31:58.121Z,20.60
2019-06-26T08:34:26.674Z,18.33
2019-06-26T08:36:55.229Z,16.37
2019-06-26T08:39:23.814Z,17.93
2019-06-26T08:41:52.520Z,19.43
2019-06-26T08:44:21.171Z,20.63
2019-06-26T08:46:51.193Z,18.17
2019-06-26T08:49:25.480Z,18.43
2019-06-26T08:51:50.298Z,20.43
2019-06-26T08:54:19.456Z,20.07
2019-06-26T08:56:48.206Z,19.73
2019-06-26T08:59:16.651Z,23.03
2019-06-26T09:01:45.332Z,20.03
2019-06-26T09:04:15.510Z,21.77
2019-06-26T09:06:44.121Z,21.97
2019-06-26T09:09:12.683Z,22.17
2019-06-26T09:11:44.693Z,22.83
2019-06-26T09:14:13.560Z,22.53
2019-06-26T09:16:42.285Z,24.43
2019-06-26T09:19:10.838Z,23.13
2019-06-26T09:21:39.447Z,21.53
2019-06-26T09:24:08.083Z,20.77
2019-06-26T09:26:38.054Z,20.93
2019-06-26T09:29:06.759Z,20.13
2019-06-26T09:31:35.368Z,23.90
2019-06-26T09:34:04.133Z,22.23
2019-06-26T09:36:33.052Z,21.00
2019-06-26T09:39:01.926Z,21.63
2019-06-26T09:41:31.393Z,21.00
2019-06-26T09:44:00.185Z,21.30
2019-06-26T09:46:28.941Z,22.23
2019-06-26T09:48:57.610Z,21.17
2019-06-26T09:51:30.403Z,20.43
2019-06-26T09:53:59.232Z,22.10
2019-06-26T09:56:28.680Z,18.37
2019-06-26T09:58:57.248Z,19.03
2019-06-26T10:01:25.925Z,21.47
2019-06-26T10:03:55.802Z,20.87
2019-06-26T10:06:24.434Z,21.97
2019-06-26T10:08:54.433Z,21.17
2019-06-26T10:11:27.820Z,23.97
2019-06-26T10:14:01.063Z,20.30
2019-06-26T10:16:29.714Z,21.73
2019-06-26T10:19:10.210Z,21.50
2019-06-26T10:21:30.217Z,18.60
2019-06-26T10:23:58.883Z,18.87
2019-06-26T10:26:27.538Z,20.53
2019-06-26T10:28:57.845Z,19.00
2019-06-26T10:31:26.545Z,17.97
2019-06-26T10:33:55.094Z,18.43
2019-06-26T10:36:24.828Z,16.47
2019-06-26T10:39:12.802Z,18.40
2019-06-26T10:41:41.419Z,16.07
2019-06-26T10:44:10.026Z,17.50
2019-06-26T10:46:38.686Z,16.33
2019-06-26T10:49:07.258Z,14.80
2019-06-26T10:51:35.967Z,14.60
2019-06-26T10:54:04.772Z,15.90
2019-06-26T10:56:33.579Z,15.87
2019-06-26T10:59:02.183Z,15.37
2019-06-26T11:01:31.111Z,16.20
2019-06-26T11:03:59.708Z,14.47
2019-06-26T11:06:28.250Z,16.30
2019-06-26T11:29:00.005Z,14.40
2019-06-26T11:31:28.715Z,13.73
2019-06-26T11:33:57.310Z,13.40
2019-06-26T11:36:28.242Z,11.00
2019-06-26T11:38:56.856Z,11.87
2019-06-26T11:41:25.514Z,11.30
2019-06-26T11:43:54.662Z,10.27
2019-06-26T11:46:23.411Z,10.80
2019-06-26T11:48:52.125Z,10.73
2019-06-26T11:51:21.524Z,11.40
2019-06-26T11:53:50.306Z,12.50
2019-06-26T11:56:19.135Z,12.50
2019-06-26T11:58:47.791Z,11.43
2019-06-26T12:01:17.675Z,11.40
2019-06-26T12:03:46.557Z,11.77
2019-06-26T12:06:19.401Z,11.80
2019-06-26T12:08:48.070Z,11.43
2019-06-26T12:11:17.447Z,10.83
2019-06-26T12:13:46.004Z,10.23
2019-06-26T12:16:16.500Z,10.23
2019-06-26T12:18:44.777Z,9.93
2019-06-26T12:21:13.317Z,8.63
2019-06-26T12:23:43.142Z,10.03
2019-06-26T12:26:13.165Z,10.37
2019-06-26T12:28:41.730Z,9.37
2019-06-26T12:31:10.507Z,9.13
2019-06-26T12:33:39.075Z,9.10
2019-06-26T12:36:08.025Z,8.47
2019-06-26T12:38:37.143Z,8.53
2019-06-26T12:41:05.690Z,9.00
2019-06-26T12:43:34.377Z,8.93
2019-06-26T12:46:02.998Z,9.80
2019-06-26T12:48:31.756Z,10.17
2019-06-26T12:51:01.169Z,14.77
2019-06-26T12:53:29.803Z,19.33
2019-06-26T12:55:59.018Z,18.23
2019-06-26T12:58:27.663Z,17.63
2019-06-26T13:00:56.237Z,12.70
2019-06-26T13:03:25.128Z,12.87
2019-06-26T13:05:53.679Z,11.10
2019-06-26T13:08:22.334Z,10.23
2019-06-26T13:10:51.173Z,9.10
2019-06-26T13:13:19.806Z,9.13
2019-06-26T13:15:50.906Z,8.90
2019-06-26T13:18:18.970Z,9.27
2019-06-26T13:20:52.957Z,8.80
2019-06-26T13:23:17.822Z,7.80
2019-06-26T13:25:46.450Z,8.57
2019-06-26T13:28:17.353Z,9.50
2019-06-26T13:30:45.974Z,8.73
2019-06-26T13:33:15.288Z,10.90
2019-06-26T13:35:44.005Z,9.40
2019-06-26T13:38:12.620Z,10.90
2019-06-26T13:40:41.388Z,10.40
2019-06-26T13:43:10.052Z,11.07
2019-06-26T13:45:38.896Z,10.90
2019-06-26T13:48:07.645Z,10.50
2019-06-26T13:50:36.200Z,10.63
2019-06-26T13:53:04.853Z,10.50
2019-06-26T13:55:33.406Z,10.03
2019-06-26T13:58:02.294Z,10.03
2019-06-26T14:00:31.178Z,9.27
2019-06-26T14:02:59.813Z,9.87
2019-06-26T14:05:29.644Z,10.87
2019-06-26T14:07:58.389Z,10.33
2019-06-26T14:10:27.251Z,10.47
2019-06-26T14:12:56.335Z,9.53
2019-06-26T14:15:25.106Z,9.40
2019-06-26T14:17:53.707Z,11.43
2019-06-26T14:20:24.277Z,9.83
2019-06-26T14:22:52.852Z,12.13
2019-06-26T14:25:21.400Z,12.33
2019-06-26T14:27:50.024Z,12.43
2019-06-26T14:30:20.086Z,11.67
2019-06-26T14:32:49.978Z,12.20
2019-06-26T14:35:19.013Z,12.50
2019-06-26T14:37:47.459Z,11.83
2019-06-26T14:40:17.169Z,11.97
2019-06-26T14:42:45.650Z,14.27
2019-06-26T14:45:14.202Z,12.40
2019-06-26T14:47:42.791Z,12.90
2019-06-26T14:50:11.744Z,12.80
2019-06-26T14:52:40.347Z,11.37
2019-06-26T14:55:09.315Z,11.90
2019-06-26T14:57:37.907Z,11.10
2019-06-26T15:00:07.073Z,11.87
2019-06-26T15:02:35.910Z,11.90
2019-06-26T15:05:08.883Z,12.13
2019-06-26T15:07:37.523Z,11.40
2019-06-26T15:10:07.634Z,10.83
2019-06-26T15:12:36.307Z,10.93
2019-06-26T15:15:06.249Z,11.23
2019-06-26T15:17:35.276Z,10.43
2019-06-26T15:20:05.026Z,10.80
2019-06-26T15:22:33.618Z,11.40
2019-06-26T15:25:02.301Z,10.60
2019-06-26T15:27:30.964Z,10.97
2019-06-26T15:29:59.598Z,10.13
2019-06-26T15:32:28.166Z,9.23
2019-06-26T15:34:56.702Z,9.77
2019-06-26T15:37:27.710Z,9.33
2019-06-26T15:39:56.307Z,9.77
2019-06-26T15:42:24.996Z,9.97
2019-06-26T15:44:53.612Z,9.97
2019-06-26T15:47:22.085Z,9.83
2019-06-26T15:49:50.772Z,10.57
2019-06-26T15:52:21.755Z,10.07
2019-06-26T15:54:50.310Z,12.53
2019-06-26T15:57:18.860Z,12.13
2019-06-26T15:59:48.858Z,10.83
2019-06-26T16:02:17.752Z,10.87
2019-06-26T16:04:46.334Z,9.83
2019-06-26T16:07:14.943Z,10.97
2019-06-26T16:09:44.307Z,9.97
2019-06-26T16:12:12.832Z,9.47
2019-06-26T16:14:41.299Z,10.67
2019-06-26T16:17:17.314Z,9.63
2019-06-26T16:19:45.864Z,10.07
2019-06-26T16:22:30.646Z,10.63
2019-06-26T16:24:45.733Z,10.40
2019-06-26T16:27:14.297Z,11.03
2019-06-26T16:29:43.074Z,10.83
2019-06-26T16:32:11.606Z,9.57
2019-06-26T16:34:46.458Z,9.40
2019-06-26T16:37:15.106Z,10.80
2019-06-26T16:39:44.689Z,10.87
2019-06-26T16:42:15.655Z,11.03
2019-06-26T16:44:44.434Z,11.50
2019-06-26T16:47:14.158Z,11.50
2019-06-26T16:49:43.119Z,10.83
2019-06-26T16:52:11.638Z,11.03
2019-06-26T16:54:40.204Z,11.70
2019-06-26T16:57:09.979Z,12.10
2019-06-26T16:59:38.679Z,12.73
2019-06-26T17:02:07.427Z,12.87
2019-06-26T17:04:40.535Z,12.37
2019-06-26T17:07:09.108Z,13.10
2019-06-26T17:09:37.634Z,12.77
2019-06-26T17:12:06.308Z,11.97
2019-06-26T17:14:34.821Z,11.97
2019-06-26T17:17:03.375Z,11.40
2019-06-26T17:19:31.916Z,11.37
2019-06-26T17:22:00.500Z,11.87
2019-06-26T17:24:29.075Z,11.53
2019-06-26T17:27:01.170Z,12.10
2019-06-26T17:29:29.706Z,11.43
2019-06-26T17:31:58.271Z,11.83
2019-06-26T17:34:27.374Z,11.00
2019-06-26T17:37:48.459Z,12.23
2019-06-26T17:40:18.594Z,12.47
2019-06-26T17:42:47.059Z,11.47
2019-06-26T17:45:15.898Z,11.43
2019-06-26T17:47:44.551Z,11.47
2019-06-26T17:50:13.647Z,11.53
2019-06-26T17:52:42.111Z,12.43
2019-06-26T17:55:11.063Z,13.80
2019-06-26T17:57:39.688Z,12.47
2019-06-26T18:00:11.726Z,12.73
2019-06-26T18:02:41.095Z,13.27
2019-06-26T18:05:09.898Z,12.73
2019-06-26T18:07:38.492Z,12.70
2019-06-26T18:10:07.342Z,12.37
2019-06-26T18:12:35.894Z,11.53
2019-06-26T18:15:06.296Z,12.07
2019-06-26T18:17:34.877Z,10.83
2019-06-26T18:20:07.670Z,11.33
2019-06-26T18:22:36.431Z,11.97
2019-06-26T18:25:06.791Z,12.63
2019-06-26T18:27:35.391Z,11.80
2019-06-26T18:30:05.784Z,11.83
2019-06-26T18:32:34.710Z,11.37
2019-06-26T18:35:04.412Z,11.87
2019-06-26T18:37:33.096Z,11.00
2019-06-26T18:40:01.690Z,10.87
2019-06-26T18:42:30.246Z,11.43
2019-06-26T18:44:58.814Z,10.90
2019-06-26T18:47:27.478Z,11.50
2019-06-26T18:49:56.539Z,10.80
2019-06-26T18:52:25.117Z,11.20
2019-06-26T18:54:53.613Z,10.60
2019-06-26T18:57:22.304Z,11.10
2019-06-26T18:59:50.867Z,11.10
2019-06-26T19:02:19.676Z,10.77
2019-06-26T19:04:48.226Z,11.07
2019-06-26T19:07:16.689Z,11.37
2019-06-26T19:09:45.618Z,12.77
2019-06-26T19:12:14.142Z,11.87
2019-06-26T19:14:45.943Z,10.17
2019-06-26T19:17:13.321Z,11.40
2019-06-26T19:19:41.857Z,10.90
2019-06-26T19:22:10.439Z,11.47
2019-06-26T19:24:39.049Z,11.67
2019-06-26T19:27:07.894Z,11.37
2019-06-26T19:29:36.522Z,11.40
2019-06-26T19:32:05.447Z,11.50
2019-06-26T19:34:34.328Z,11.00
2019-06-26T19:37:03.010Z,11.63
2019-06-26T19:39:31.813Z,11.20
2019-06-26T19:42:01.560Z,11.27
2019-06-26T19:44:30.195Z,10.93
2019-06-26T19:46:59.271Z,10.83
2019-06-26T19:49:27.915Z,11.13
2019-06-26T19:51:56.648Z,10.83
2019-06-26T19:54:44.819Z,11.40
2019-06-26T19:57:13.775Z,11.27
2019-06-26T19:59:42.612Z,11.17
2019-06-26T20:02:11.342Z,11.40
2019-06-26T20:04:40.460Z,11.27
2019-06-26T20:07:09.191Z,11.17
2019-06-26T20:09:37.689Z,10.43
2019-06-26T20:12:06.283Z,10.40
2019-06-26T20:14:34.926Z,11.40
2019-06-26T20:17:03.600Z,10.47
2019-06-26T20:19:34.526Z,10.43
2019-06-26T20:22:03.032Z,11.03
2019-06-26T20:24:43.368Z,10.63
2019-06-26T20:27:02.196Z,9.87
2019-06-26T20:29:30.712Z,9.53
2019-06-26T20:31:59.263Z,11.13
2019-06-26T20:34:27.728Z,10.80
2019-06-26T20:36:56.304Z,9.80
2019-06-26T20:39:24.856Z,11.37
2019-06-26T20:41:56.311Z,10.53
2019-06-26T20:44:24.819Z,9.57
2019-06-26T20:46:53.327Z,9.77
2019-06-26T20:49:21.990Z,9.87
2019-06-26T20:51:50.564Z,9.70
2019-06-26T20:54:19.037Z,9.73
2019-06-26T20:56:47.917Z,9.77
2019-06-26T20:59:16.571Z,10.70
2019-06-26T21:01:45.122Z,9.83
2019-06-26T21:04:13.601Z,8.97
2019-06-26T21:06:42.096Z,10.20
2019-06-26T21:09:10.563Z,9.90
2019-06-26T21:11:39.118Z,9.63
2019-06-26T21:14:09.059Z,10.07
2019-06-26T21:16:37.599Z,10.07
2019-06-26T21:19:06.186Z,8.80
2019-06-26T21:21:35.090Z,9.27
2019-06-26T21:24:03.593Z,9.13
2019-06-26T21:26:32.310Z,9.77
2019-06-26T21:29:01.012Z,9.03
2019-06-26T21:31:29.584Z,9.60
2019-06-26T21:33:58.163Z,9.27
2019-06-26T21:36:26.927Z,9.43
2019-06-26T21:38:55.551Z,8.40
2019-06-26T21:41:24.082Z,9.37
2019-06-26T21:43:52.656Z,8.70
2019-06-26T21:46:21.200Z,9.30
2019-06-26T21:48:49.770Z,9.27
2019-06-26T21:51:20.640Z,8.43
2019-06-26T21:53:49.175Z,8.40
2019-06-26T21:56:17.671Z,8.70
2019-06-26T21:58:50.729Z,8.43
2019-06-26T22:01:19.529Z,9.27
2019-06-26T22:03:48.217Z,9.17
2019-06-26T22:06:17.194Z,8.67
2019-06-26T22:08:45.675Z,8.80
2019-06-26T22:11:14.217Z,9.03
2019-06-26T22:13:43.299Z,9.03
2019-06-26T22:16:14.519Z,8.03
2019-06-26T22:19:02.412Z,8.63
2019-06-26T22:21:31.011Z,8.60
2019-06-26T22:23:59.492Z,7.73
2019-06-26T22:26:28.074Z,8.33
2019-06-26T22:29:00.298Z,8.13
2019-06-26T22:31:28.930Z,8.83
2019-06-26T22:33:57.644Z,8.33
2019-06-26T22:36:26.226Z,8.27
2019-06-26T22:38:54.784Z,9.03
2019-06-26T22:41:23.339Z,8.50
2019-06-26T22:43:52.290Z,8.50
2019-06-26T22:46:20.745Z,8.40
2019-06-26T22:48:49.219Z,8.67
2019-06-26T22:51:17.860Z,7.53
2019-06-26T22:53:46.740Z,8.40
2019-06-26T22:56:15.355Z,8.00
2019-06-26T22:58:47.636Z,7.27
2019-06-26T23:01:16.239Z,7.27
2019-06-26T23:03:44.891Z,8.03
2019-06-26T23:06:13.507Z,7.73
2019-06-26T23:08:41.989Z,7.90
2019-06-26T23:11:10.671Z,8.13
2019-06-26T23:13:39.366Z,7.37
2019-06-26T23:16:07.964Z,6.77
2019-06-26T23:18:36.882Z,7.10
2019-06-26T23:21:05.437Z,6.93
2019-06-26T23:23:34.024Z,7.27
2019-06-26T23:26:02.656Z,7.17
2019-06-26T23:28:31.577Z,6.43
2019-06-26T23:31:00.140Z,7.37
2019-06-26T23:33:28.706Z,6.83
2019-06-26T23:35:57.360Z,6.20
2019-06-26T23:38:27.247Z,6.40
2019-06-26T23:40:55.897Z,7.53
2019-06-26T23:43:24.387Z,6.20
2019-06-26T23:45:52.961Z,6.17
2019-06-26T23:48:21.748Z,5.77
2019-06-26T23:50:50.326Z,5.63
2019-06-26T23:53:18.939Z,6.10
2019-06-26T23:55:47.818Z,5.63
2019-06-26T23:58:17.171Z,6.67
